Time;durP1;ratioP1;P1;durP2;ratioP2;P2;SDS_P1;SDS_P2;PMS_P1;PMS_P2;Temp;Humidity;BMP_temperature;BMP_pressure;BME280_temperature;BME280_humidity;BME280_pressure;Samples;Min_cycle;Max_cycle;Signal;HPM_P1;HPM_P2
2023/12/24 00:00:14;;;;;;;;;2.00;2.00;;;;;13.49;76.14;101398.06;5061680;28;45306;-66
2023/12/24 00:02:39;;;;;;;;;3.00;2.00;;;;;13.54;76.04;101405.97;5079734;28;45622;-66
2023/12/24 00:05:05;;;;;;;;;2.75;2.75;;;;;13.39;76.36;101379.69;5079959;28;45347;-66
2023/12/24 00:07:30;;;;;;;;;2.50;2.00;;;;;13.46;76.39;101391.94;5079719;28;45323;-65
2023/12/24 00:09:55;;;;;;;;;1.00;1.00;;;;;13.49;76.32;101389.16;5078628;28;45430;-66
2023/12/24 00:12:21;;;;;;;;;3.25;2.00;;;;;13.52;76.24;101400.66;5079329;28;45399;-66
2023/12/24 00:14:46;;;;;;;;;2.75;2.75;;;;;13.43;76.44;101390.25;5079626;28;45346;-66
2023/12/24 00:17:12;;;;;;;;;2.75;2.00;;;;;13.32;76.62;101363.78;5079583;28;45295;-66
2023/12/24 00:19:37;;;;;;;;;5.00;3.00;;;;;13.37;76.56;101381.53;5078637;28;45375;-65
2023/12/24 00:22:05;;;;;;;;;2.00;2.00;;;;;13.60;76.67;101421.88;5079463;28;45253;-65
2023/12/24 00:24:30;;;;;;;;;4.00;3.00;;;;;13.57;76.72;101415.72;5079681;28;45552;-65
2023/12/24 00:26:55;;;;;;;;;3.50;3.50;;;;;13.37;76.72;101382.41;5060876;28;45526;-65
2023/12/24 00:29:21;;;;;;;;;2.25;2.00;;;;;13.36;76.44;101377.97;5079753;28;45316;-65
2023/12/24 00:31:46;;;;;;;;;1.00;1.00;;;;;13.37;76.39;101376.19;5079308;28;45542;-65
2023/12/24 00:34:11;;;;;;;;;3.00;1.25;;;;;13.34;76.56;101375.34;5061003;28;47211;-65
2023/12/24 00:36:37;;;;;;;;;2.00;2.00;;;;;13.40;76.73;101392.13;5079332;28;45586;-65
2023/12/24 00:39:02;;;;;;;;;2.50;2.00;;;;;13.53;76.47;101418.50;5060642;28;45492;-65
2023/12/24 00:41:30;;;;;;;;;1.00;1.00;;;;;13.32;76.57;101385.25;5060809;28;45566;-65
2023/12/24 00:43:55;;;;;;;;;2.75;2.75;;;;;13.52;76.69;101408.69;5079168;28;46287;-65
2023/12/24 00:46:21;;;;;;;;;1.50;1.50;;;;;13.22;76.50;101364.13;5079132;28;45487;-65
2023/12/24 00:48:46;;;;;;;;;2.00;2.00;;;;;13.29;76.66;101357.63;5079304;28;45522;-65
2023/12/24 00:51:11;;;;;;;;;2.00;2.00;;;;;13.37;76.45;101378.88;5079132;28;45537;-66
2023/12/24 00:53:37;;;;;;;;;2.25;1.50;;;;;13.36;76.70;101369.06;5079040;28;45409;-65
2023/12/24 00:56:02;;;;;;;;;2.00;2.00;;;;;13.55;76.26;101396.09;5078876;28;45596;-65
2023/12/24 00:58:28;;;;;;;;;2.00;1.00;;;;;13.36;76.49;101352.97;5079178;28;45497;-65
2023/12/24 01:00:53;;;;;;;;;1.00;1.00;;;;;13.32;76.48;101342.34;5078928;28;45330;-65
2023/12/24 01:03:19;;;;;;;;;2.00;2.00;;;;;13.50;76.44;101367.66;5079072;28;45358;-66
2023/12/24 01:05:45;;;;;;;;;1.00;1.00;;;;;13.44;76.54;101361.63;5078844;28;45593;-65
2023/12/24 01:08:10;;;;;;;;;2.00;2.00;;;;;13.37;76.66;101350.22;5060486;28;45406;-66
2023/12/24 01:10:36;;;;;;;;;2.75;2.75;;;;;13.41;76.34;101351.00;5078995;28;45418;-65
2023/12/24 01:13:01;;;;;;;;;1.25;1.25;;;;;13.40;76.30;101359.97;5078609;28;45369;-66
2023/12/24 01:15:26;;;;;;;;;1.50;1.50;;;;;13.46;76.50;101373.16;5060406;28;45727;-65
2023/12/24 01:17:52;;;;;;;;;2.75;2.75;;;;;13.37;76.33;101352.91;5079034;28;45484;-65
2023/12/24 01:20:18;;;;;;;;;2.75;2.00;;;;;13.42;76.40;101352.75;5078643;28;45420;-65
2023/12/24 01:22:45;;;;;;;;;2.50;1.50;;;;;13.48;76.23;101371.31;5060663;28;47579;-65
2023/12/24 01:25:10;;;;;;;;;2.00;2.00;;;;;13.49;76.28;101389.16;5077059;28;45291;-65
2023/12/24 01:27:36;;;;;;;;;3.00;1.00;;;;;13.30;76.73;101354.91;5078540;28;45422;-65
2023/12/24 01:30:03;;;;;;;;;1.00;1.00;;;;;13.50;76.34;101375.69;5060503;28;45506;-65
2023/12/24 01:32:28;;;;;;;;;3.00;3.00;;;;;13.52;76.34;101378.34;5081804;28;45557;-65
2023/12/24 01:34:54;;;;;;;;;1.25;1.25;;;;;13.40;76.33;101373.38;5082048;28;45409;-66
2023/12/24 01:37:19;;;;;;;;;1.00;1.00;;;;;13.24;76.21;101349.72;5064058;28;45308;-65
2023/12/24 01:39:44;;;;;;;;;1.25;1.25;;;;;13.33;76.41;101360.19;5081892;28;45522;-65
2023/12/24 01:42:10;;;;;;;;;2.00;2.00;;;;;13.27;76.13;101352.31;5081851;28;46482;-65
2023/12/24 01:44:35;;;;;;;;;1.00;1.00;;;;;13.27;76.29;101348.75;5081909;28;45402;-65
2023/12/24 01:47:00;;;;;;;;;2.00;0.00;;;;;13.22;76.27;101346.22;5082104;28;45400;-65
2023/12/24 01:49:26;;;;;;;;;1.00;1.00;;;;;13.31;75.91;101363.81;5081954;28;45430;-66
2023/12/24 01:51:53;;;;;;;;;3.25;1.00;;;;;13.19;75.96;101354.38;5063591;28;47886;-65
2023/12/24 01:54:18;;;;;;;;;0.00;0.00;;;;;13.23;75.61;101356.03;5081760;28;45587;-65
2023/12/24 01:56:44;;;;;;;;;1.00;1.00;;;;;13.14;75.71;101346.47;5081732;28;45410;-65
2023/12/24 01:59:10;;;;;;;;;1.00;1.00;;;;;13.25;75.71;101359.53;5081895;28;45236;-65
2023/12/24 02:01:36;;;;;;;;;1.00;1.00;;;;;13.30;75.52;101365.63;5081619;28;46822;-65
2023/12/24 02:04:02;;;;;;;;;0.00;0.00;;;;;13.29;75.69;101352.25;5063474;28;45361;-65
2023/12/24 02:06:27;;;;;;;;;0.75;0.75;;;;;13.48;75.48;101382.03;5063192;28;45401;-65
2023/12/24 02:08:55;;;;;;;;;0.50;0.50;;;;;13.24;75.43;101333.66;5063358;28;46119;-65
2023/12/24 02:11:21;;;;;;;;;0.00;0.00;;;;;13.21;75.34;101330.19;5081535;28;46306;-65
2023/12/24 02:13:46;;;;;;;;;1.00;1.00;;;;;13.20;75.51;101334.69;5063067;28;45874;-65
2023/12/24 02:16:17;;;;;;;;;1.00;1.00;;;;;13.33;75.47;101362.88;5081774;28;45565;-65
2023/12/24 02:18:43;;;;;;;;;0.00;0.00;;;;;13.37;75.22;101360.97;5081597;28;45374;-66
2023/12/24 02:21:08;;;;;;;;;3.00;0.50;;;;;13.38;75.29;101338.59;5081312;28;45398;-65
2023/12/24 02:23:34;;;;;;;;;1.75;1.00;;;;;13.44;74.77;101350.91;5081330;28;45445;-65
2023/12/24 02:26:19;;;;;;;;;1.00;1.00;;;;;13.30;74.93;101325.41;5081460;28;45327;-65
2023/12/24 02:28:50;;;;;;;;;2.00;1.00;;;;;13.27;74.95;101308.56;5081048;28;45703;-65
2023/12/24 02:31:20;;;;;;;;;0.25;0.00;;;;;13.40;75.18;101339.41;5063006;28;47500;-65
2023/12/24 02:33:49;;;;;;;;;0.50;0.50;;;;;13.24;75.03;101309.53;5081085;28;45405;-65
2023/12/24 02:36:15;;;;;;;;;1.25;1.00;;;;;13.41;75.25;101326.88;5081495;28;45329;-65
2023/12/24 02:38:40;;;;;;;;;1.00;1.00;;;;;13.25;75.26;101300.56;5081223;28;45561;-65
2023/12/24 02:41:06;;;;;;;;;3.00;1.00;;;;;13.28;75.07;101335.31;5081063;28;46632;-65
2023/12/24 02:43:31;;;;;;;;;0.25;0.25;;;;;13.31;75.13;101339.66;5066768;28;45315;-65
2023/12/24 02:45:59;;;;;;;;;0.75;0.75;;;;;13.10;75.13;101312.69;5081216;28;45329;-65
2023/12/24 02:48:24;;;;;;;;;2.25;0.50;;;;;13.45;75.25;101376.81;5081147;28;45392;-65
2023/12/24 02:50:51;;;;;;;;;2.00;1.00;;;;;13.20;75.27;101334.69;5080943;28;46928;-65
2023/12/24 02:53:16;;;;;;;;;1.00;1.00;;;;;13.24;75.39;101347.06;5062680;28;46030;-66
2023/12/24 02:55:42;;;;;;;;;2.00;1.00;;;;;13.21;75.42;101341.78;5081142;28;45621;-65
2023/12/24 02:58:07;;;;;;;;;0.00;0.00;;;;;13.16;75.19;101336.59;5079295;28;45398;-65
2023/12/24 03:00:33;;;;;;;;;1.00;1.00;;;;;13.25;75.41;101338.09;5080869;28;46460;-65
2023/12/24 03:02:58;;;;;;;;;1.25;1.00;;;;;13.18;75.62;101307.06;5080859;28;45440;-65
2023/12/24 03:05:24;;;;;;;;;2.00;2.00;;;;;13.11;75.55;101293.00;5080901;28;45350;-65
2023/12/24 03:07:49;;;;;;;;;1.00;1.00;;;;;13.28;75.48;101335.31;5080786;28;45683;-65
2023/12/24 03:10:15;;;;;;;;;1.25;0.25;;;;;13.30;75.59;101341.50;5080846;28;45340;-65
2023/12/24 03:12:40;;;;;;;;;0.00;0.00;;;;;13.19;75.66;101338.28;5080339;28;45398;-66
2023/12/24 03:15:07;;;;;;;;;0.00;0.00;;;;;12.93;75.85;101289.13;5080882;28;45366;-66
2023/12/24 03:17:32;;;;;;;;;1.00;0.75;;;;;13.05;75.86;101295.00;5067283;28;45443;-66
2023/12/24 03:19:57;;;;;;;;;0.00;0.00;;;;;13.01;75.52;101294.22;5080525;28;45419;-66
2023/12/24 03:22:23;;;;;;;;;1.00;0.00;;;;;13.27;75.66;101335.34;5062489;28;45578;-66
2023/12/24 03:24:48;;;;;;;;;1.75;1.00;;;;;13.11;75.71;101306.41;5080724;28;45350;-65
2023/12/24 03:27:14;;;;;;;;;0.50;0.50;;;;;13.10;75.68;101309.13;5080173;28;45501;-66
2023/12/24 03:29:39;;;;;;;;;0.00;0.00;;;;;13.30;75.91;101343.31;5080384;28;46184;-65
2023/12/24 03:32:05;;;;;;;;;1.50;0.25;;;;;13.33;75.70;101333.38;5080351;28;45415;-66
2023/12/24 03:34:30;;;;;;;;;0.00;0.00;;;;;13.12;75.74;101283.16;5080586;28;45508;-65
2023/12/24 03:36:56;;;;;;;;;0.00;0.00;;;;;13.10;75.81;101261.75;5061445;28;45656;-65
2023/12/24 03:39:21;;;;;;;;;0.00;0.00;;;;;13.12;75.82;101261.69;5080177;28;46067;-65
2023/12/24 03:41:46;;;;;;;;;2.00;1.00;;;;;13.06;75.86;101249.38;5079994;28;45517;-65
2023/12/24 03:44:12;;;;;;;;;0.25;0.25;;;;;13.00;75.92;101244.25;5080419;28;45569;-65
2023/12/24 03:46:37;;;;;;;;;2.00;0.00;;;;;13.05;75.93;101253.00;5080077;28;45461;-66
2023/12/24 03:49:02;;;;;;;;;2.25;0.75;;;;;12.97;75.91;101247.88;5078606;28;46230;-65
2023/12/24 03:51:28;;;;;;;;;0.00;0.00;;;;;13.11;76.07;101262.63;5080000;28;45370;-65
2023/12/24 03:53:53;;;;;;;;;0.25;0.25;;;;;12.97;75.91;101239.84;5080017;28;45382;-65
2023/12/24 03:56:19;;;;;;;;;0.50;0.50;;;;;13.01;76.30;101258.50;5079788;28;45552;-66
2023/12/24 03:58:46;;;;;;;;;0.00;0.00;;;;;13.05;75.98;101298.56;5061542;28;47393;-66
2023/12/24 04:01:12;;;;;;;;;3.00;0.00;;;;;13.16;76.00;101308.91;5061483;28;45353;-66
2023/12/24 04:03:37;;;;;;;;;0.00;0.00;;;;;13.01;76.54;101278.13;5061229;28;45305;-66
2023/12/24 04:06:13;;;;;;;;;1.00;1.00;;;;;13.06;75.87;101288.69;5079696;28;45498;-66
2023/12/24 04:08:38;;;;;;;;;1.00;1.00;;;;;12.91;76.16;101271.34;5061520;28;46309;-66
2023/12/24 04:11:11;;;;;;;;;0.25;0.25;;;;;12.92;76.18;101273.97;5079609;28;45485;-66
2023/12/24 04:13:36;;;;;;;;;2.00;0.25;;;;;12.94;76.26;101269.44;5079681;28;45409;-65
2023/12/24 04:16:01;;;;;;;;;1.00;1.00;;;;;12.86;76.26;101268.81;5079737;28;45392;-65
2023/12/24 04:18:27;;;;;;;;;0.25;0.25;;;;;12.92;76.41;101279.31;5079671;28;46624;-65
2023/12/24 04:20:52;;;;;;;;;1.00;1.00;;;;;12.97;76.31;101276.50;5079684;28;45309;-65
2023/12/24 04:23:17;;;;;;;;;1.50;0.50;;;;;12.87;76.18;101240.22;5061526;28;45323;-65
2023/12/24 04:25:43;;;;;;;;;1.75;1.75;;;;;12.86;76.38;101225.94;5079716;28;45472;-65
2023/12/24 04:28:08;;;;;;;;;1.00;1.00;;;;;12.86;76.35;101239.34;5079219;28;46117;-65
2023/12/24 04:30:33;;;;;;;;;1.00;1.00;;;;;12.79;76.29;101221.72;5079585;28;45339;-65
2023/12/24 04:32:59;;;;;;;;;1.00;1.00;;;;;12.79;76.38;101213.69;5079480;28;45447;-65
2023/12/24 04:35:24;;;;;;;;;1.50;1.00;;;;;12.85;76.33;101216.16;5079367;28;45402;-65
2023/12/24 04:37:49;;;;;;;;;2.00;0.00;;;;;13.01;76.03;101235.25;5060969;28;46470;-65
2023/12/24 04:40:15;;;;;;;;;0.00;0.00;;;;;12.94;76.25;101205.13;5079233;28;45578;-65
2023/12/24 04:42:40;;;;;;;;;1.00;1.00;;;;;12.91;75.93;101194.53;5060885;28;45378;-65
2023/12/24 04:45:06;;;;;;;;;1.25;1.25;;;;;12.84;76.10;101178.72;5079442;28;45354;-65
2023/12/24 04:47:31;;;;;;;;;1.00;1.00;;;;;13.07;76.12;101218.97;5078873;28;45476;-66
2023/12/24 04:49:57;;;;;;;;;0.75;0.75;;;;;12.84;76.19;101189.44;5079504;28;45553;-65
2023/12/24 04:52:22;;;;;;;;;1.00;1.00;;;;;12.81;76.03;101185.03;5060702;28;45437;-66
2023/12/24 04:54:47;;;;;;;;;2.25;1.25;;;;;12.80;76.26;101172.59;5079200;28;45462;-65
2023/12/24 04:57:13;;;;;;;;;3.50;1.00;;;;;12.77;76.10;101173.56;5078575;28;46564;-66
2023/12/24 04:59:38;;;;;;;;;1.00;1.00;;;;;12.79;76.19;101173.50;5079192;28;45437;-66
2023/12/24 05:02:03;;;;;;;;;0.75;0.75;;;;;12.81;76.46;101189.53;5079249;28;45422;-65
2023/12/24 05:04:32;;;;;;;;;0.00;0.00;;;;;12.81;76.25;101194.88;5079121;28;45445;-65
2023/12/24 05:06:58;;;;;;;;;2.00;1.75;;;;;12.71;76.44;101183.59;5081438;28;45451;-65
2023/12/24 05:09:23;;;;;;;;;0.75;0.75;;;;;12.71;76.29;101191.63;5064506;28;45393;-65
2023/12/24 05:11:48;;;;;;;;;1.00;0.75;;;;;12.70;76.11;101190.78;5082476;28;45409;-65
2023/12/24 05:14:14;;;;;;;;;2.00;1.00;;;;;12.50;76.23;101161.13;5082538;28;45469;-65
2023/12/24 05:16:39;;;;;;;;;1.00;1.00;;;;;12.82;76.24;101239.50;5082432;28;45512;-66
2023/12/24 05:19:04;;;;;;;;;1.00;1.00;;;;;12.83;76.46;101244.81;5082288;28;45371;-66
2023/12/24 05:21:30;;;;;;;;;1.00;1.00;;;;;12.62;76.37;101221.44;5082687;28;45382;-65
2023/12/24 05:23:56;;;;;;;;;2.00;1.00;;;;;12.56;76.32;101219.81;5082259;28;45335;-66
2023/12/24 05:26:21;;;;;;;;;0.75;0.75;;;;;12.70;76.37;101238.13;5063938;28;47254;-65
2023/12/24 05:28:47;;;;;;;;;2.25;0.75;;;;;12.57;76.62;101217.09;5082028;28;45568;-66
2023/12/24 05:31:12;;;;;;;;;1.00;1.00;;;;;12.85;76.41;101253.69;5082251;28;45516;-66
2023/12/24 05:33:37;;;;;;;;;3.00;2.00;;;;;12.66;76.39;101217.72;5082124;28;45390;-66
2023/12/24 05:36:03;;;;;;;;;3.00;1.00;;;;;12.67;76.44;101200.72;5063819;28;47175;-65
2023/12/24 05:38:29;;;;;;;;;1.00;1.00;;;;;12.74;76.11;101219.19;5063605;28;46011;-66
2023/12/24 05:40:54;;;;;;;;;1.75;1.00;;;;;12.75;76.25;101204.03;5064211;28;45320;-65
2023/12/24 05:43:20;;;;;;;;;1.00;1.00;;;;;12.71;76.64;101197.91;5081757;28;45609;-65
2023/12/24 05:45:46;;;;;;;;;3.00;2.25;;;;;12.76;76.75;101192.34;5063644;28;48437;-65
2023/12/24 05:48:11;;;;;;;;;1.00;1.00;;;;;12.86;76.59;101199.16;5063460;28;45347;-65
2023/12/24 05:50:38;;;;;;;;;1.50;1.50;;;;;12.81;76.53;101186.84;5080819;28;45352;-65
2023/12/24 05:53:04;;;;;;;;;2.00;1.25;;;;;12.83;76.73;101191.25;5081812;28;45476;-66
2023/12/24 05:55:29;;;;;;;;;1.25;1.00;;;;;12.51;76.74;101134.31;5063429;28;47746;-66
2023/12/24 05:57:54;;;;;;;;;2.00;1.00;;;;;12.73;76.61;101168.34;5081509;28;45365;-66
2023/12/24 06:00:20;;;;;;;;;2.00;1.00;;;;;12.59;76.95;101142.06;5046794;28;45371;-65
2023/12/24 06:02:45;;;;;;;;;1.00;1.00;;;;;12.58;76.88;101148.34;5081689;28;45582;-65
2023/12/24 06:05:11;;;;;;;;;3.25;1.00;;;;;12.58;76.74;101140.31;5081767;28;47155;-65
2023/12/24 06:07:36;;;;;;;;;2.00;1.00;;;;;12.68;77.16;101152.47;5081654;28;45385;-65
2023/12/24 06:10:02;;;;;;;;;2.00;1.50;;;;;12.62;77.01;101152.66;5081985;28;45552;-65
2023/12/24 06:12:27;;;;;;;;;3.25;2.00;;;;;12.69;77.16;101158.69;5081094;28;45357;-65
2023/12/24 06:14:52;;;;;;;;;3.50;2.25;;;;;12.62;77.24;101141.09;5081616;28;46592;-65
2023/12/24 06:17:18;;;;;;;;;4.25;1.00;;;;;12.55;77.10;101145.78;5081477;28;45433;-65
2023/12/24 06:19:43;;;;;;;;;2.50;1.00;;;;;12.48;77.20;101131.72;5063279;28;45449;-65
2023/12/24 06:22:09;;;;;;;;;2.00;0.25;;;;;12.67;77.30;101158.72;5081513;28;45553;-65
2023/12/24 06:24:35;;;;;;;;;1.25;1.25;;;;;12.72;77.41;101169.28;5080007;28;45685;-65
2023/12/24 06:27:00;;;;;;;;;1.75;1.25;;;;;12.64;77.34;101147.25;5081075;28;45409;-65
2023/12/24 06:29:25;;;;;;;;;1.00;1.00;;;;;12.79;77.39;101162.78;5062503;28;45428;-66
2023/12/24 06:31:51;;;;;;;;;2.00;2.00;;;;;12.51;77.38;101126.28;5062826;28;45513;-65
2023/12/24 06:34:16;;;;;;;;;4.75;1.00;;;;;12.54;77.30;101144.88;5062940;28;47355;-65
2023/12/24 06:36:41;;;;;;;;;0.25;0.25;;;;;12.48;77.35;101153.16;5081117;28;45366;-65
2023/12/24 06:39:07;;;;;;;;;3.00;2.00;;;;;12.47;77.21;101148.69;5081393;28;45357;-65
2023/12/24 06:41:32;;;;;;;;;3.50;1.50;;;;;12.47;77.44;101137.13;5080773;28;45541;-65
2023/12/24 06:43:58;;;;;;;;;2.00;2.00;;;;;12.63;77.55;101170.50;5081087;28;46151;-65
2023/12/24 06:46:24;;;;;;;;;2.75;1.00;;;;;12.48;77.46;101139.75;5080991;28;45276;-65
2023/12/24 06:48:51;;;;;;;;;2.75;1.00;;;;;12.69;77.65;101166.72;5081199;28;45330;-65
2023/12/24 06:51:17;;;;;;;;;2.50;1.00;;;;;12.56;77.67;101145.72;5080972;28;45565;-65
2023/12/24 06:53:42;;;;;;;;;2.00;1.00;;;;;12.52;77.30;101132.50;5081006;28;46256;-65
2023/12/24 06:56:07;;;;;;;;;2.75;2.00;;;;;12.65;77.65;101140.97;5080676;28;45347;-65
2023/12/24 06:58:32;;;;;;;;;6.50;2.00;;;;;12.60;77.57;101147.34;5081061;28;45452;-65
2023/12/24 07:00:58;;;;;;;;;3.00;1.00;;;;;12.56;77.93;101148.41;5080691;28;45432;-65
2023/12/24 07:03:23;;;;;;;;;2.00;1.00;;;;;12.66;77.84;101165.00;5062553;28;46531;-65
2023/12/24 07:05:49;;;;;;;;;1.00;1.00;;;;;12.47;77.76;101124.59;5080561;28;45621;-65
2023/12/24 07:08:14;;;;;;;;;3.75;1.25;;;;;12.54;77.75;101142.19;5081131;28;45330;-65
2023/12/24 07:10:39;;;;;;;;;1.25;1.25;;;;;12.73;77.77;101182.63;5062234;28;45869;-65
2023/12/24 07:13:05;;;;;;;;;1.00;1.00;;;;;12.50;77.86;101132.53;5080408;28;46587;-65
2023/12/24 07:15:31;;;;;;;;;2.50;1.00;;;;;12.69;77.85;101174.75;5080309;28;45272;-65
2023/12/24 07:17:57;;;;;;;;;3.00;2.00;;;;;12.54;78.10;101158.25;5080961;28;45325;-65
2023/12/24 07:20:22;;;;;;;;;4.25;1.00;;;;;12.49;78.01;101141.47;5080447;28;45330;-65
2023/12/24 07:22:48;;;;;;;;;3.25;1.00;;;;;12.52;78.17;101143.19;5080643;28;45460;-65
2023/12/24 07:25:13;;;;;;;;;2.50;2.00;;;;;12.73;78.14;101177.28;5062171;28;46053;-65
2023/12/24 07:27:38;;;;;;;;;5.50;1.00;;;;;12.55;78.32;101148.44;5079037;28;45298;-65
2023/12/24 07:30:05;;;;;;;;;2.00;1.25;;;;;12.63;78.84;101161.56;5061758;28;45806;-65
2023/12/24 07:32:30;;;;;;;;;2.25;1.25;;;;;12.69;78.45;101166.72;5080208;28;46198;-65
2023/12/24 07:34:56;;;;;;;;;3.00;1.75;;;;;12.48;78.64;101137.06;5080226;28;45425;-65
2023/12/24 07:37:22;;;;;;;;;4.00;1.50;;;;;12.66;78.70;101169.50;5080441;28;45568;-65
2023/12/24 07:39:47;;;;;;;;;0.75;0.75;;;;;12.50;78.67;101137.91;5080067;28;45422;-65
2023/12/24 07:42:12;;;;;;;;;2.00;2.00;;;;;12.54;78.84;101135.97;5079917;28;45461;-65
2023/12/24 07:44:38;;;;;;;;;1.75;0.00;;;;;12.65;78.97;101157.06;5080239;28;45370;-65
2023/12/24 07:47:03;;;;;;;;;2.00;1.00;;;;;12.59;79.02;101148.28;5080363;28;45354;-65
2023/12/24 07:49:29;;;;;;;;;1.50;1.50;;;;;12.75;79.18;101164.72;5079891;28;45579;-65
2023/12/24 07:51:54;;;;;;;;;1.50;1.50;;;;;12.66;78.95;101156.09;5080247;28;46154;-65
2023/12/24 07:54:20;;;;;;;;;2.00;2.00;;;;;12.51;79.63;101130.72;5079844;28;45310;-65
2023/12/24 07:56:45;;;;;;;;;1.75;1.25;;;;;12.69;79.81;101164.03;5061574;28;45429;-65
2023/12/24 07:59:10;;;;;;;;;2.50;1.00;;;;;12.59;79.79;101161.66;5080075;28;45397;-65
2023/12/24 08:01:39;;;;;;;;;4.50;2.50;;;;;12.63;80.16;101161.56;5079674;28;45584;-66
2023/12/24 08:04:05;;;;;;;;;2.75;1.75;;;;;12.71;80.10;101171.13;5079863;28;45604;-66
2023/12/24 08:06:30;;;;;;;;;2.00;2.00;;;;;12.45;80.18;101129.16;5080046;28;45384;-65
2023/12/24 08:08:57;;;;;;;;;1.25;1.25;;;;;12.66;80.10;101162.31;5061518;28;45547;-66
2023/12/24 08:11:22;;;;;;;;;4.00;1.25;;;;;12.53;80.10;101137.78;5074694;28;47212;-65
2023/12/24 08:13:47;;;;;;;;;0.50;0.50;;;;;12.51;80.09;101139.66;5075403;28;45461;-65
2023/12/24 08:16:13;;;;;;;;;4.25;2.00;;;;;12.66;79.95;101161.47;5061793;28;45335;-65
2023/12/24 08:18:38;;;;;;;;;3.00;1.00;;;;;12.68;80.07;101167.63;5077927;28;45447;-65
2023/12/24 08:21:06;;;;;;;;;2.00;2.00;;;;;12.75;80.15;101180.78;5079554;28;46402;-66
2023/12/24 08:23:32;;;;;;;;;3.50;1.00;;;;;12.56;79.69;101150.19;5061357;28;45354;-65
2023/12/24 08:25:57;;;;;;;;;2.00;1.00;;;;;12.57;79.89;101142.09;5079612;28;45326;-65
2023/12/24 08:28:23;;;;;;;;;1.75;1.00;;;;;12.59;79.59;101153.63;5079425;28;45338;-65
2023/12/24 08:30:49;;;;;;;;;1.00;1.00;;;;;12.73;80.09;101179.06;5079490;28;46297;-65
2023/12/24 08:33:14;;;;;;;;;4.00;2.00;;;;;12.74;79.60;101196.91;5079448;28;45326;-65
2023/12/24 08:35:39;;;;;;;;;1.00;1.00;;;;;12.60;79.88;101182.19;5079498;28;45453;-65
2023/12/24 08:38:05;;;;;;;;;2.25;2.00;;;;;12.56;79.05;101177.88;5079422;28;45529;-65
2023/12/24 08:40:30;;;;;;;;;3.25;1.75;;;;;12.74;79.48;101197.75;5078016;28;46163;-66
2023/12/24 08:42:55;;;;;;;;;1.50;1.50;;;;;12.79;79.65;101200.28;5079000;28;45449;-65
2023/12/24 08:45:24;;;;;;;;;2.00;2.00;;;;;12.60;79.54;101174.13;5079590;28;45334;-66
2023/12/24 08:47:49;;;;;;;;;4.00;2.50;;;;;12.82;79.33;101205.56;5079017;28;45521;-66
2023/12/24 08:50:16;;;;;;;;;2.50;1.75;;;;;12.46;79.41;101146.94;5077805;28;48474;-65
2023/12/24 08:52:41;;;;;;;;;1.00;1.00;;;;;12.57;79.55;101154.63;5079129;28;45582;-65
2023/12/24 08:55:07;;;;;;;;;2.75;2.00;;;;;12.60;79.67;101182.19;5079333;28;45306;-65
2023/12/24 08:57:32;;;;;;;;;1.50;1.00;;;;;12.60;79.34;101167.91;5078715;28;45470;-65
2023/12/24 08:59:57;;;;;;;;;1.00;1.00;;;;;12.57;79.28;101168.88;5060813;28;46808;-65
2023/12/24 09:02:23;;;;;;;;;1.50;1.00;;;;;12.78;79.63;101195.88;5078991;28;45334;-66
2023/12/24 09:04:49;;;;;;;;;2.00;1.00;;;;;12.59;79.08;101167.03;5079246;28;45315;-65
2023/12/24 09:07:16;;;;;;;;;2.00;2.00;;;;;12.75;79.10;101179.91;5078988;28;45442;-65
2023/12/24 09:09:42;;;;;;;;;3.50;2.00;;;;;12.79;78.94;101200.28;5079027;28;46834;-66
2023/12/24 09:12:07;;;;;;;;;1.00;0.25;;;;;12.73;78.84;101192.47;5059064;28;45382;-65
2023/12/24 09:14:33;;;;;;;;;2.00;1.00;;;;;12.69;79.25;101183.66;5078954;28;45319;-65
2023/12/24 09:16:58;;;;;;;;;1.00;1.00;;;;;12.66;79.13;101174.84;5078948;28;45284;-66
2023/12/24 09:19:23;;;;;;;;;1.00;1.00;;;;;12.67;78.98;101181.97;5078835;28;45367;-66
2023/12/24 09:21:49;;;;;;;;;4.75;1.25;;;;;12.69;79.03;101180.97;5078835;28;45569;-66
2023/12/24 09:24:14;;;;;;;;;1.25;1.25;;;;;12.76;79.02;101185.22;5078947;28;45372;-66
2023/12/24 09:26:39;;;;;;;;;3.00;1.25;;;;;12.90;79.09;101213.34;5078488;28;45424;-66
2023/12/24 09:29:05;;;;;;;;;3.25;1.50;;;;;12.75;78.55;101185.28;5077391;28;47040;-66
2023/12/24 09:31:30;;;;;;;;;4.00;1.00;;;;;12.66;78.89;101167.69;5060354;28;46564;-65
2023/12/24 09:33:55;;;;;;;;;0.50;0.50;;;;;13.00;78.65;101227.25;5078827;28;45368;-66
2023/12/24 09:36:21;;;;;;;;;5.00;1.00;;;;;12.75;79.01;101183.47;5078575;28;45303;-65
2023/12/24 09:38:46;;;;;;;;;1.00;1.00;;;;;12.84;78.97;101189.44;5078495;28;45339;-66
2023/12/24 09:41:13;;;;;;;;;1.00;1.00;;;;;12.96;78.78;101202.38;5060042;28;45623;-66
2023/12/24 09:43:40;;;;;;;;;2.00;2.00;;;;;12.94;79.49;101199.75;5078795;28;45433;-65
2023/12/24 09:46:05;;;;;;;;;2.50;1.50;;;;;12.81;79.07;101185.03;5077253;28;45408;-65
2023/12/24 09:48:30;;;;;;;;;7.25;2.75;;;;;12.85;78.86;101185.84;5078381;28;45345;-66
2023/12/24 09:50:56;;;;;;;;;4.75;2.50;;;;;12.85;78.96;101180.47;5078492;28;45506;-65
2023/12/24 09:53:21;;;;;;;;;3.50;2.50;;;;;12.87;78.94;101186.66;5080331;28;45401;-65
2023/12/24 09:55:46;;;;;;;;;4.00;1.50;;;;;12.89;79.09;101187.47;5081732;28;45693;-65
2023/12/24 09:58:12;;;;;;;;;3.75;3.00;;;;;13.10;78.94;101191.19;5062940;28;48375;-65
2023/12/24 10:00:37;;;;;;;;;2.25;1.00;;;;;12.92;78.78;101160.56;5081729;28;45458;-65
2023/12/24 10:03:03;;;;;;;;;1.75;1.50;;;;;13.16;78.97;101199.00;5082172;28;45374;-65
2023/12/24 10:05:28;;;;;;;;;2.25;2.00;;;;;12.91;78.66;101166.84;5081708;28;45731;-65
2023/12/24 10:07:54;;;;;;;;;2.50;2.00;;;;;12.95;78.82;101172.03;5081738;28;46231;-65
2023/12/24 10:10:31;;;;;;;;;0.75;0.75;;;;;12.82;78.73;101143.94;5081686;28;45395;-65
2023/12/24 10:13:05;;;;;;;;;4.00;2.00;;;;;12.97;78.63;101177.34;5081534;28;45323;-65
2023/12/24 10:15:32;;;;;;;;;2.50;2.50;;;;;13.01;78.57;101196.88;5081402;28;45335;-65
2023/12/24 10:18:14;;;;;;;;;4.75;2.00;;;;;12.91;78.57;101194.53;5081634;28;45410;-65
2023/12/24 10:20:39;;;;;;;;;1.75;1.75;;;;;12.95;78.45;101198.84;5081461;28;45509;-65
2023/12/24 10:23:08;;;;;;;;;2.75;2.00;;;;;13.13;78.69;101208.03;5081593;28;45395;-65
2023/12/24 10:25:34;;;;;;;;;3.25;2.00;;;;;13.06;78.66;101202.94;5062967;28;45539;-65
2023/12/24 10:28:06;;;;;;;;;1.00;1.00;;;;;13.05;78.76;101191.34;5062817;28;47509;-65
2023/12/24 10:30:32;;;;;;;;;2.50;1.25;;;;;12.96;78.78;101160.41;5080168;28;45900;-65
2023/12/24 10:33:08;;;;;;;;;3.00;2.00;;;;;13.01;78.90;101162.03;5077322;28;45515;-65
2023/12/24 10:35:34;;;;;;;;;1.50;1.50;;;;;13.01;78.86;101156.69;5062920;28;45636;-65
2023/12/24 10:38:13;;;;;;;;;2.00;2.00;;;;;13.04;78.86;101161.94;5081103;28;46129;-65
2023/12/24 10:40:39;;;;;;;;;1.25;1.25;;;;;13.09;78.71;101160.81;5081088;28;45503;-65
2023/12/24 10:43:04;;;;;;;;;6.25;2.75;;;;;13.27;78.78;101185.22;5079724;28;45802;-65
2023/12/24 10:45:30;;;;;;;;;3.75;1.00;;;;;13.20;78.65;101178.31;5081133;28;45333;-65
2023/12/24 10:47:55;;;;;;;;;1.00;1.00;;;;;13.10;79.32;101151.88;5080959;28;46120;-65
2023/12/24 10:50:21;;;;;;;;;5.00;2.75;;;;;13.06;78.99;101147.53;5081026;28;45383;-65
2023/12/24 10:52:46;;;;;;;;;3.00;1.50;;;;;13.10;78.78;101157.22;5081189;27;45320;-65
2023/12/24 10:55:12;;;;;;;;;2.75;2.50;;;;;13.28;78.90;101182.50;5081028;28;45225;-65
2023/12/24 10:57:58;;;;;;;;;3.25;3.25;;;;;13.17;78.87;101149.84;5080386;28;45555;-65
2023/12/24 11:00:24;;;;;;;;;2.75;2.00;;;;;13.21;78.80;101166.66;5080870;28;45320;-66
2023/12/24 11:02:50;;;;;;;;;1.00;1.00;;;;;13.26;78.86;101159.34;5080734;28;45613;-66
2023/12/24 11:05:42;;;;;;;;;2.00;2.00;;;;;13.41;78.94;101184.75;5061211;28;45570;-65
2023/12/24 11:08:22;;;;;;;;;2.00;2.00;;;;;13.43;79.13;101189.13;5062560;28;46994;-65
2023/12/24 11:10:58;;;;;;;;;1.75;1.00;;;;;13.20;78.91;101147.03;5080606;28;45365;-65
2023/12/24 11:13:37;;;;;;;;;1.00;1.00;;;;;13.43;79.12;101173.03;5062555;28;45462;-65
2023/12/24 11:16:04;;;;;;;;;3.25;2.50;;;;;13.25;78.98;101133.47;5080744;28;45374;-66
2023/12/24 11:18:47;;;;;;;;;2.00;1.00;;;;;13.34;78.72;101149.25;5080488;28;45718;-65